createdAt,value
2022-09-15T00:01:43.551Z,96941.81
2022-09-15T00:04:12.738Z,96940.28
2022-09-15T00:06:41.770Z,96946.59
2022-09-15T00:09:10.547Z,96947.09
2022-09-15T00:11:40.770Z,96951.66
2022-09-15T00:14:09.983Z,96955.16
2022-09-15T00:16:39.121Z,96954.66
2022-09-15T00:19:07.980Z,96952.00
2022-09-15T00:21:39.722Z,96952.00
2022-09-15T00:24:10.162Z,96961.47
2022-09-15T00:26:39.387Z,96963.50
2022-09-15T00:29:09.187Z,96955.47
2022-09-15T00:31:37.992Z,96955.03
2022-09-15T00:34:07.701Z,96966.69
2022-09-15T00:36:36.512Z,96956.56
2022-09-15T00:39:05.992Z,96965.72
2022-09-15T00:41:35.894Z,96967.06
2022-09-15T00:44:36.677Z,96973.81
2022-09-15T00:47:19.243Z,96970.38
2022-09-15T00:49:58.818Z,96958.56
2022-09-15T00:52:53.879Z,96960.13
2022-09-15T00:55:30.956Z,96955.66
2022-09-15T00:58:07.362Z,96951.56
2022-09-15T01:00:37.491Z,96949.63
2022-09-15T01:03:07.228Z,96951.09
2022-09-15T01:05:45.673Z,96948.88
2022-09-15T01:08:26.802Z,96959.19
2022-09-15T01:10:55.812Z,96948.72
2022-09-15T01:13:24.777Z,96942.69
2022-09-15T01:16:12.142Z,96950.34
2022-09-15T01:19:00.200Z,96930.59
2022-09-15T01:21:32.003Z,96948.13
2022-09-15T01:24:18.680Z,96946.19
2022-09-15T01:27:09.782Z,96949.78
2022-09-15T01:30:03.656Z,96936.78
2022-09-15T01:33:09.461Z,96948.38
2022-09-15T01:35:59.579Z,96945.22
2022-09-15T01:38:47.685Z,96945.59
2022-09-15T01:41:27.213Z,96946.09
2022-09-15T01:44:28.048Z,96938.47
2022-09-15T01:47:04.021Z,96945.84
2022-09-15T01:49:42.888Z,96942.41
2022-09-15T01:52:12.272Z,96945.06
2022-09-15T01:54:49.809Z,96941.09
2022-09-15T01:57:23.063Z,96942.31
2022-09-15T01:59:54.715Z,96937.66
2022-09-15T02:02:39.210Z,96934.47
2022-09-15T02:05:33.216Z,96944.81
2022-09-15T02:08:09.324Z,96936.78
2022-09-15T02:10:47.073Z,96937.66
2022-09-15T02:14:01.966Z,96935.06
2022-09-15T02:16:37.029Z,96933.06
2022-09-15T02:19:32.842Z,96931.03
2022-09-15T02:22:39.227Z,96931.16
2022-09-15T02:25:29.614Z,96934.41
2022-09-15T02:28:05.128Z,96938.72
2022-09-15T02:30:36.786Z,96936.78
2022-09-15T02:33:09.075Z,96933.44
2022-09-15T02:35:37.952Z,96943.00
2022-09-15T02:38:09.740Z,96938.16
2022-09-15T02:40:42.055Z,96935.97
2022-09-15T02:43:14.188Z,96943.94
2022-09-15T02:45:46.542Z,96936.53
2022-09-15T02:48:18.207Z,96936.53
2022-09-15T02:50:47.043Z,96936.16
2022-09-15T02:53:15.755Z,96932.28
2022-09-15T02:55:44.930Z,96932.06
2022-09-15T02:58:13.634Z,96931.41
2022-09-15T03:00:45.421Z,96930.97
2022-09-15T03:03:14.330Z,96930.75
2022-09-15T03:05:43.595Z,96927.91
2022-09-15T03:08:14.510Z,96928.19
2022-09-15T03:10:44.813Z,96931.75
2022-09-15T03:13:13.548Z,96918.03
2022-09-15T03:15:42.491Z,96912.13
2022-09-15T03:18:11.228Z,96915.41
2022-09-15T03:20:40.887Z,96922.13
2022-09-15T03:23:09.962Z,96912.22
2022-09-15T03:25:38.637Z,96913.69
2022-09-15T03:28:07.398Z,96912.91
2022-09-15T03:30:36.191Z,96915.19
2022-09-15T03:33:04.978Z,96915.94
2022-09-15T03:35:33.951Z,96924.19
2022-09-15T03:38:02.887Z,96914.19
2022-09-15T03:40:31.924Z,96899.69
2022-09-15T03:43:01.447Z,96908.38
2022-09-15T03:45:30.273Z,96915.53
2022-09-15T03:47:59.080Z,96910.94
2022-09-15T03:50:29.665Z,96914.00
2022-09-15T03:53:01.063Z,96906.91
2022-09-15T03:55:29.916Z,96908.94
2022-09-15T03:57:58.627Z,96896.19
2022-09-15T04:00:27.882Z,96911.78
2022-09-15T04:02:56.880Z,96907.44
2022-09-15T04:05:25.600Z,96906.78
2022-09-15T04:07:54.441Z,96907.97
2022-09-15T04:10:25.142Z,96906.66
2022-09-15T04:12:54.734Z,96901.59
2022-09-15T04:15:24.189Z,96900.41
2022-09-15T04:17:52.849Z,96896.53
2022-09-15T04:20:22.016Z,96892.25
2022-09-15T04:22:50.983Z,96885.97
2022-09-15T04:25:19.815Z,96881.88
2022-09-15T04:27:48.560Z,96898.16
2022-09-15T04:30:17.850Z,96899.03
2022-09-15T04:32:46.774Z,96886.38
2022-09-15T04:35:15.483Z,96887.09
2022-09-15T04:37:44.151Z,96889.50
2022-09-15T04:40:13.299Z,96884.09
2022-09-15T04:42:42.759Z,96879.78
2022-09-15T04:45:11.678Z,96877.75
2022-09-15T04:47:40.657Z,96884.22
2022-09-15T04:50:09.854Z,96875.94
2022-09-15T04:52:38.551Z,96877.66
2022-09-15T04:55:07.458Z,96881.38
2022-09-15T04:57:36.155Z,96886.44
2022-09-15T05:00:08.093Z,96881.44
2022-09-15T05:02:36.938Z,96870.97
2022-09-15T05:05:07.200Z,96883.81
2022-09-15T05:07:35.931Z,96881.31
2022-09-15T05:10:04.993Z,96865.34
2022-09-15T05:12:34.210Z,96876.25
2022-09-15T05:15:03.090Z,96883.94
2022-09-15T05:17:33.205Z,96866.94
2022-09-15T05:20:02.277Z,96876.38
2022-09-15T05:22:32.864Z,96861.00
2022-09-15T05:25:01.588Z,96860.50
2022-09-15T05:27:34.441Z,96857.91
2022-09-15T05:30:31.931Z,96861.72
2022-09-15T05:32:53.545Z,96857.66
2022-09-15T05:35:24.084Z,96855.78
2022-09-15T05:37:52.794Z,96855.16
2022-09-15T05:40:22.923Z,96858.06
2022-09-15T05:42:51.711Z,96855.13
2022-09-15T05:45:20.385Z,96853.13
2022-09-15T05:47:49.081Z,96846.50
2022-09-15T05:50:17.964Z,96846.63
2022-09-15T05:52:52.418Z,96844.41
2022-09-15T05:55:21.323Z,96847.25
2022-09-15T05:57:50.075Z,96835.38
2022-09-15T06:00:19.855Z,96842.56
2022-09-15T06:02:48.864Z,96845.84
2022-09-15T06:05:17.726Z,96835.53
2022-09-15T06:07:46.419Z,96823.31
2022-09-15T06:10:16.262Z,96825.53
2022-09-15T06:12:45.890Z,96832.13
2022-09-15T06:15:14.802Z,96831.13
2022-09-15T06:17:43.592Z,96830.50
2022-09-15T06:20:12.722Z,96825.44
2022-09-15T06:22:41.751Z,96816.72
2022-09-15T06:25:11.137Z,96816.91
2022-09-15T06:27:40.721Z,96815.31
2022-09-15T06:30:10.624Z,96808.66
2022-09-15T06:32:40.107Z,96810.63
2022-09-15T06:35:09.274Z,96807.34
2022-09-15T06:37:37.982Z,96816.50
2022-09-15T06:40:08.207Z,96800.81
2022-09-15T06:42:37.853Z,96803.19
2022-09-15T06:45:06.927Z,96797.00
2022-09-15T06:47:36.105Z,96805.13
2022-09-15T06:50:05.699Z,96797.88
2022-09-15T06:52:35.147Z,96791.00
2022-09-15T06:55:04.518Z,96801.31
2022-09-15T06:57:33.292Z,96796.22
2022-09-15T07:00:03.846Z,96786.06
2022-09-15T07:02:33.888Z,96802.69
2022-09-15T07:05:03.387Z,96796.34
2022-09-15T07:07:32.270Z,96786.97
2022-09-15T07:10:03.019Z,96794.91
2022-09-15T07:12:33.008Z,96794.69
2022-09-15T07:15:01.872Z,96788.94
2022-09-15T07:17:32.127Z,96795.44
2022-09-15T07:20:02.778Z,96789.44
2022-09-15T07:22:32.241Z,96788.44
2022-09-15T07:25:00.901Z,96796.38
2022-09-15T07:27:32.284Z,96792.78
2022-09-15T07:30:01.217Z,96788.38
2022-09-15T07:32:30.546Z,96785.13
2022-09-15T07:34:59.537Z,96785.13
2022-09-15T07:37:28.356Z,96776.03
2022-09-15T07:39:57.110Z,96773.88
2022-09-15T07:42:26.521Z,96780.91
2022-09-15T07:44:55.376Z,96792.47
2022-09-15T07:47:24.135Z,96784.47
2022-09-15T07:49:53.471Z,96784.44
2022-09-15T07:52:22.447Z,96776.69
2022-09-15T07:54:51.759Z,96778.88
2022-09-15T07:57:20.489Z,96782.75
2022-09-15T07:59:50.435Z,96777.34
2022-09-15T08:02:22.094Z,96767.19
2022-09-15T08:04:53.683Z,96770.28
2022-09-15T08:07:22.876Z,96777.50
2022-09-15T08:09:51.641Z,96771.88
2022-09-15T08:12:20.401Z,96767.47
2022-09-15T08:14:49.888Z,96774.16
2022-09-15T08:17:18.696Z,96772.50
2022-09-15T08:19:47.806Z,96769.22
2022-09-15T08:22:16.532Z,96772.00
2022-09-15T08:24:45.406Z,96756.91
2022-09-15T08:27:15.857Z,96758.94
2022-09-15T08:29:44.778Z,96768.53
2022-09-15T08:32:13.706Z,96761.63
2022-09-15T08:34:42.494Z,96763.03
2022-09-15T08:37:11.228Z,96761.78
2022-09-15T08:39:40.026Z,96765.28
2022-09-15T08:42:16.442Z,96770.72
2022-09-15T08:44:59.633Z,96761.25
2022-09-15T08:47:42.573Z,96765.75
2022-09-15T08:50:23.707Z,96769.97
2022-09-15T08:53:25.946Z,96765.09
2022-09-15T08:56:02.316Z,96776.44
2022-09-15T08:58:34.874Z,96771.78
2022-09-15T09:01:07.505Z,96775.75
2022-09-15T09:04:01.214Z,96779.75
2022-09-15T09:06:55.360Z,96776.75
2022-09-15T09:09:43.131Z,96776.34
2022-09-15T09:12:31.217Z,96777.94
2022-09-15T09:15:26.524Z,96784.59
2022-09-15T09:18:21.515Z,96776.06
2022-09-15T09:21:14.034Z,96782.28
2022-09-15T09:24:07.814Z,96784.66
2022-09-15T09:26:37.674Z,96785.41
2022-09-15T09:29:15.508Z,96783.47
2022-09-15T09:31:46.698Z,96792.41
2022-09-15T09:34:33.412Z,96795.50
2022-09-15T09:37:09.213Z,96792.34
2022-09-15T09:39:37.997Z,96795.41
2022-09-15T09:42:12.145Z,96797.75
2022-09-15T09:44:42.197Z,96796.53
2022-09-15T09:47:12.922Z,96800.75
2022-09-15T09:49:48.524Z,96801.09
2022-09-15T09:52:39.604Z,96802.22
2022-09-15T09:55:23.764Z,96795.53
2022-09-15T09:57:52.731Z,96807.16
2022-09-15T10:00:40.175Z,96803.94
2022-09-15T10:03:29.419Z,96813.56
2022-09-15T10:06:12.125Z,96802.97
2022-09-15T10:08:59.114Z,96799.06
2022-09-15T10:11:47.934Z,96803.72
2022-09-15T10:14:27.620Z,96806.41
2022-09-15T10:16:59.269Z,96805.91
2022-09-15T10:19:31.128Z,96808.09
2022-09-15T10:22:03.301Z,96806.09
2022-09-15T10:24:40.746Z,96810.63
2022-09-15T10:27:32.213Z,96812.16
2022-09-15T10:30:17.193Z,96813.22
2022-09-15T10:32:46.008Z,96820.94
2022-09-15T10:35:19.230Z,96815.03
2022-09-15T10:38:03.878Z,96813.06
2022-09-15T10:41:13.652Z,96818.50
2022-09-15T10:44:05.529Z,96811.13
2022-09-15T10:46:49.059Z,96818.53
2022-09-15T10:49:39.124Z,96818.84
2022-09-15T10:52:16.679Z,96813.59
2022-09-15T10:54:48.910Z,96817.34
2022-09-15T10:57:39.367Z,96818.75
2022-09-15T11:00:13.509Z,96824.50
2022-09-15T11:03:00.629Z,96818.97
2022-09-15T11:05:29.354Z,96828.09
2022-09-15T11:08:33.887Z,96821.25
2022-09-15T11:11:18.626Z,96806.09
2022-09-15T11:13:47.435Z,96827.72
2022-09-15T11:16:44.572Z,96831.69
2022-09-15T11:19:50.386Z,96829.50
2022-09-15T11:22:40.313Z,96828.75
2022-09-15T11:25:29.745Z,96840.22
2022-09-15T11:28:25.886Z,96839.25
2022-09-15T11:31:20.248Z,96844.19
2022-09-15T11:34:12.102Z,96846.75
2022-09-15T11:36:47.454Z,96831.69
2022-09-15T11:39:31.131Z,96845.06
2022-09-15T11:42:15.270Z,96849.38
2022-09-15T11:44:47.430Z,96845.19
2022-09-15T11:47:43.562Z,96854.88
2022-09-15T11:50:12.312Z,96857.94
2022-09-15T11:52:51.787Z,96852.59
2022-09-15T11:55:53.962Z,96858.25
2022-09-15T11:58:44.085Z,96865.47
2022-09-15T12:01:19.709Z,96861.50
2022-09-15T12:03:52.701Z,96860.53
2022-09-15T12:06:45.986Z,96861.13
2022-09-15T12:09:19.100Z,96866.72
2022-09-15T12:11:53.578Z,96865.38
2022-09-15T12:14:47.917Z,96868.03
2022-09-15T12:17:31.241Z,96872.72
2022-09-15T12:20:12.335Z,96866.34
2022-09-15T12:22:47.096Z,96876.25
2022-09-15T12:26:03.281Z,96881.53
2022-09-15T12:28:38.130Z,96877.19
2022-09-15T12:31:32.875Z,96878.34
2022-09-15T12:34:26.450Z,96877.16
2022-09-15T12:37:16.205Z,96884.28
2022-09-15T12:39:47.162Z,96879.00
2022-09-15T12:42:30.285Z,96878.47
2022-09-15T12:45:06.679Z,96880.81
2022-09-15T12:47:49.705Z,96885.66
2022-09-15T12:50:21.914Z,96887.44
2022-09-15T12:53:01.397Z,96891.81
2022-09-15T12:55:38.491Z,96882.84
2022-09-15T12:58:19.090Z,96898.34
2022-09-15T13:01:16.938Z,96902.16
2022-09-15T13:03:41.309Z,96898.66
2022-09-15T13:06:27.417Z,96904.06
2022-09-15T13:09:02.021Z,96905.63
2022-09-15T13:11:39.977Z,96905.53
2022-09-15T13:14:23.789Z,96902.16
2022-09-15T13:16:59.091Z,96903.59
2022-09-15T13:19:52.866Z,96903.81
2022-09-15T13:22:35.396Z,96910.97
2022-09-15T13:25:05.221Z,96913.41
2022-09-15T13:27:57.543Z,96919.00
2022-09-15T13:30:48.448Z,96910.22
2022-09-15T13:40:04.779Z,96907.59
2022-09-15T13:42:52.161Z,96915.00
2022-09-15T13:45:45.205Z,96912.53
2022-09-15T13:48:24.038Z,96907.16
2022-09-15T13:51:06.767Z,96906.09
2022-09-15T13:53:44.650Z,96907.34
2022-09-15T13:56:28.689Z,96918.19
2022-09-15T13:59:08.133Z,96912.41
2022-09-15T14:01:39.761Z,96907.81
2022-09-15T14:04:20.059Z,96909.25
2022-09-15T14:06:55.917Z,96913.72
2022-09-15T14:09:37.938Z,96921.19
2022-09-15T14:12:13.871Z,96908.47
2022-09-15T14:14:52.085Z,96905.69
2022-09-15T14:17:30.310Z,96908.03
2022-09-15T14:20:01.406Z,96913.66
2022-09-15T14:22:36.328Z,96914.38
2022-09-15T14:25:15.213Z,96909.25
2022-09-15T14:27:48.612Z,96916.03
2022-09-15T14:30:25.230Z,96911.75
2022-09-15T14:33:04.672Z,96913.53
2022-09-15T14:35:38.299Z,96915.63
2022-09-15T14:38:07.950Z,96916.00
2022-09-15T14:40:40.443Z,96913.84
2022-09-15T14:43:36.219Z,96908.13
2022-09-15T14:46:17.544Z,96909.91
2022-09-15T14:48:46.320Z,96906.66
2022-09-15T14:51:29.262Z,96894.72
2022-09-15T14:54:00.968Z,96915.53
2022-09-15T14:56:35.830Z,96916.66
2022-09-15T14:59:20.265Z,96910.94
2022-09-15T15:01:57.379Z,96919.47
2022-09-15T15:04:55.682Z,96910.94
2022-09-15T15:07:28.475Z,96916.19
2022-09-15T15:10:05.425Z,96915.28
2022-09-15T15:12:40.548Z,96914.44
2022-09-15T15:15:15.613Z,96903.38
2022-09-15T15:17:49.975Z,96917.06
2022-09-15T15:20:25.173Z,96915.94
2022-09-15T15:23:17.154Z,96919.38
2022-09-15T15:25:47.604Z,96910.84
2022-09-15T15:28:37.460Z,96911.56
2022-09-15T15:31:09.175Z,96910.13
2022-09-15T15:33:38.360Z,96912.69
2022-09-15T15:36:15.391Z,96919.97
2022-09-15T15:38:52.755Z,96916.88
2022-09-15T15:41:32.217Z,96922.09
2022-09-15T15:44:03.948Z,96922.91
2022-09-15T15:46:53.838Z,96926.19
2022-09-15T15:49:28.099Z,96926.28
2022-09-15T15:51:58.829Z,96929.44
2022-09-15T15:54:27.756Z,96924.66
2022-09-15T15:57:04.764Z,96925.59
2022-09-15T15:59:34.505Z,96935.31
2022-09-15T16:02:07.045Z,96938.22
2022-09-15T16:04:35.942Z,96934.47
2022-09-15T16:07:04.773Z,96934.31
2022-09-15T16:09:34.490Z,96942.16
2022-09-15T16:12:03.298Z,96945.28
2022-09-15T16:14:32.463Z,96933.44
2022-09-15T16:17:01.816Z,96944.84
2022-09-15T16:19:30.564Z,96941.06
2022-09-15T16:21:59.402Z,96943.13
2022-09-15T16:24:29.117Z,96946.31
2022-09-15T16:26:57.893Z,96940.13
2022-09-15T16:29:31.869Z,96936.03
2022-09-15T16:32:00.922Z,96946.63
2022-09-15T16:34:29.596Z,96935.41
2022-09-15T16:36:58.499Z,96941.09
2022-09-15T16:39:27.172Z,96937.13
2022-09-15T16:41:55.907Z,96933.00
2022-09-15T16:44:24.891Z,96934.22
2022-09-15T16:46:53.715Z,96939.75
2022-09-15T16:49:22.604Z,96935.53
2022-09-15T16:51:51.351Z,96939.22
2022-09-15T16:54:23.493Z,96935.28
2022-09-15T16:56:52.651Z,96926.16
2022-09-15T16:59:21.420Z,96937.03
2022-09-15T17:01:50.954Z,96937.19
2022-09-15T17:04:19.889Z,96932.81
2022-09-15T17:06:48.783Z,96937.22
2022-09-15T17:09:17.489Z,96933.09
2022-09-15T17:11:46.219Z,96931.25
2022-09-15T17:14:17.530Z,96940.19
2022-09-15T17:16:53.213Z,96935.03
2022-09-15T17:19:22.824Z,96930.91
2022-09-15T17:21:53.221Z,96932.63
2022-09-15T17:24:21.987Z,96939.41
2022-09-15T17:26:51.080Z,96934.50
2022-09-15T17:29:19.741Z,96937.50
2022-09-15T17:31:48.502Z,96937.34
2022-09-15T17:34:17.246Z,96937.66
2022-09-15T17:36:46.075Z,96937.81
2022-09-15T17:39:15.385Z,96932.75
2022-09-15T17:41:45.438Z,96942.19
2022-09-15T17:44:14.958Z,96945.19
2022-09-15T17:46:43.845Z,96939.19
2022-09-15T17:49:12.866Z,96938.56
2022-09-15T17:51:41.967Z,96932.25
2022-09-15T17:54:13.945Z,96933.50
2022-09-15T17:56:42.724Z,96931.94
2022-09-15T17:59:15.621Z,96938.06
2022-09-15T18:01:45.744Z,96938.53
2022-09-15T18:04:15.146Z,96937.88
2022-09-15T18:06:45.684Z,96931.88
2022-09-15T18:09:15.912Z,96932.19
2022-09-15T18:11:44.958Z,96935.31
2022-09-15T18:14:13.718Z,96937.50
2022-09-15T18:16:43.152Z,96939.53
2022-09-15T18:19:12.116Z,96930.06
2022-09-15T18:21:40.834Z,96931.47
2022-09-15T18:24:12.216Z,96923.28
2022-09-15T18:26:40.921Z,96927.97
2022-09-15T18:29:10.674Z,96925.31
2022-09-15T18:31:39.449Z,96933.78
2022-09-15T18:34:08.438Z,96933.78
2022-09-15T18:36:37.445Z,96926.69
2022-09-15T18:39:06.214Z,96937.53
2022-09-15T18:41:37.650Z,96934.19
2022-09-15T18:44:06.524Z,96943.91
2022-09-15T18:46:35.360Z,96938.69
2022-09-15T18:49:04.089Z,96928.50
2022-09-15T18:51:50.458Z,96938.75
2022-09-15T18:54:19.923Z,96928.19
2022-09-15T18:56:48.636Z,96941.56
2022-09-15T18:59:17.892Z,96932.06
2022-09-15T19:01:47.613Z,96926.28
2022-09-15T19:04:16.480Z,96926.09
2022-09-15T19:06:45.267Z,96927.00
2022-09-15T19:09:14.049Z,96936.09
2022-09-15T19:11:43.618Z,96926.16
2022-09-15T19:14:12.308Z,96932.72
2022-09-15T19:16:57.197Z,96933.94
2022-09-15T19:19:27.038Z,96931.06
2022-09-15T19:21:55.866Z,96928.53
2022-09-15T19:24:25.914Z,96931.38
2022-09-15T19:26:54.592Z,96924.28
2022-09-15T19:29:23.672Z,96925.69
2022-09-15T19:31:52.553Z,96926.16
2022-09-15T19:34:21.926Z,96926.16
2022-09-15T19:36:50.896Z,96928.06
2022-09-15T19:39:19.735Z,96915.78
2022-09-15T19:41:48.699Z,96918.28
2022-09-15T19:44:17.774Z,96930.41
2022-09-15T19:46:46.982Z,96926.47
2022-09-15T19:49:15.776Z,96921.25
2022-09-15T19:51:45.027Z,96928.78
2022-09-15T19:54:13.955Z,96920.72
2022-09-15T19:56:42.919Z,96915.78
2022-09-15T19:59:11.670Z,96921.59
2022-09-15T20:01:41.499Z,96929.72
2022-09-15T20:04:11.264Z,96916.97
2022-09-15T20:06:40.916Z,96920.44
2022-09-15T20:09:10.774Z,96928.94
2022-09-15T20:11:39.496Z,96924.00
2022-09-15T20:14:08.584Z,96930.13
2022-09-15T20:16:38.321Z,96933.41
2022-09-15T20:19:08.192Z,96932.13
2022-09-15T20:21:50.440Z,96925.34
2022-09-15T20:24:21.434Z,96916.72
2022-09-15T20:26:50.276Z,96912.56
2022-09-15T20:29:19.967Z,96916.66
2022-09-15T20:31:49.082Z,96915.06
2022-09-15T20:34:19.296Z,96920.41
2022-09-15T20:36:48.094Z,96910.63
2022-09-15T20:39:19.389Z,96919.91
2022-09-15T20:41:48.461Z,96920.50
2022-09-15T20:44:17.333Z,96913.69
2022-09-15T20:46:46.122Z,96906.81
2022-09-15T20:49:14.915Z,96914.50
2022-09-15T20:51:43.892Z,96906.59
2022-09-15T20:54:12.720Z,96921.53
2022-09-15T20:56:42.402Z,96924.28
2022-09-15T20:59:14.702Z,96923.31
2022-09-15T21:01:44.231Z,96926.59
2022-09-15T21:04:13.422Z,96917.09
2022-09-15T21:06:42.335Z,96925.91
2022-09-15T21:09:11.261Z,96924.63
2022-09-15T21:11:40.380Z,96923.25
2022-09-15T21:14:11.345Z,96917.41
2022-09-15T21:16:40.680Z,96918.00
2022-09-15T21:19:12.912Z,96914.06
2022-09-15T21:21:41.880Z,96917.31
2022-09-15T21:24:11.096Z,96919.47
2022-09-15T21:27:01.846Z,96919.00
2022-09-15T21:29:31.863Z,96925.13
2022-09-15T21:32:00.637Z,96923.34
2022-09-15T21:34:29.562Z,96919.69
2022-09-15T21:36:58.517Z,96911.78
2022-09-15T21:39:28.167Z,96919.50
2022-09-15T21:41:56.921Z,96921.38
2022-09-15T21:44:27.623Z,96910.22
2022-09-15T21:46:56.332Z,96909.13
2022-09-15T21:49:26.432Z,96900.53
2022-09-15T21:51:55.224Z,96908.22
2022-09-15T21:54:24.963Z,96910.72
2022-09-15T21:56:53.660Z,96909.44
2022-09-15T21:59:22.638Z,96909.22
2022-09-15T22:01:52.755Z,96909.59
2022-09-15T22:04:21.797Z,96910.22
2022-09-15T22:06:51.441Z,96920.06
2022-09-15T22:09:21.931Z,96915.16
2022-09-15T22:11:51.790Z,96922.94
2022-09-15T22:14:22.002Z,96913.94
2022-09-15T22:16:50.871Z,96921.72
2022-09-15T22:19:20.183Z,96912.25
2022-09-15T22:21:49.411Z,96915.69
2022-09-15T22:24:19.372Z,96907.72
2022-09-15T22:26:48.226Z,96909.59
2022-09-15T22:29:16.930Z,96915.41
2022-09-15T22:31:45.762Z,96902.38
2022-09-15T22:34:15.365Z,96903.97
2022-09-15T22:36:46.036Z,96904.44
2022-09-15T22:39:15.602Z,96900.03
2022-09-15T22:41:44.376Z,96903.47
2022-09-15T22:44:19.703Z,96910.69
2022-09-15T22:46:50.287Z,96902.69
2022-09-15T22:49:19.328Z,96898.94
2022-09-15T22:51:48.267Z,96896.84
2022-09-15T22:54:17.241Z,96902.47
2022-09-15T22:56:48.970Z,96892.81
2022-09-15T22:59:17.734Z,96898.56
2022-09-15T23:01:47.920Z,96891.34
2022-09-15T23:04:17.002Z,96885.34
2022-09-15T23:06:46.312Z,96895.50
2022-09-15T23:09:15.092Z,96891.63
2022-09-15T23:11:43.939Z,96900.53
2022-09-15T23:14:15.839Z,96894.72
2022-09-15T23:16:44.865Z,96896.78
2022-09-15T23:19:14.576Z,96903.69
2022-09-15T23:21:44.049Z,96902.72
2022-09-15T23:24:13.171Z,96904.28
2022-09-15T23:26:42.864Z,96914.84
2022-09-15T23:29:11.874Z,96914.53
2022-09-15T23:31:40.956Z,96912.78
2022-09-15T23:34:14.780Z,96908.13
2022-09-15T23:36:44.144Z,96909.00
2022-09-15T23:39:13.307Z,96913.53
2022-09-15T23:41:42.501Z,96910.81
2022-09-15T23:44:11.827Z,96898.56
2022-09-15T23:46:40.670Z,96915.47
2022-09-15T23:49:10.002Z,96918.09
2022-09-15T23:51:38.773Z,96916.34
2022-09-15T23:54:07.624Z,96912.50
2022-09-15T23:56:36.800Z,96907.56
2022-09-15T23:59:05.741Z,96918.88
